Time;durP1;ratioP1;P1;durP2;ratioP2;P2;SDS_P1;SDS_P2;PMS_P1;PMS_P2;Temp;Humidity;BMP_temperature;BMP_pressure;BME280_temperature;BME280_humidity;BME280_pressure;Samples;Min_cycle;Max_cycle;Signal;HPM_P1;HPM_P2
2022/10/09 00:01:03;;;;;;;16.63;5.43;;;;;;;;;;5034590;28;20221;-67
2022/10/09 00:03:29;;;;;;;13.57;6.43;;;;;;;;;;5041950;28;20177;-67
2022/10/09 00:05:54;;;;;;;15.87;6.50;;;;;;;;;;5033307;28;20547;-67
2022/10/09 00:08:19;;;;;;;17.93;6.80;;;;;;;;;;5041215;28;20178;-68
2022/10/09 00:10:45;;;;;;;16.00;6.47;;;;;;;;;;5044497;28;20183;-68
2022/10/09 00:13:11;;;;;;;14.17;5.90;;;;;;;;;;5044647;28;20277;-68
2022/10/09 00:15:41;;;;;;;13.43;5.97;;;;;;;;;;5039668;28;20529;-68
2022/10/09 00:18:08;;;;;;;13.30;5.97;;;;;;;;;;5044912;28;20180;-68
2022/10/09 00:20:41;;;;;;;14.57;5.40;;;;;;;;;;5044876;28;20209;-68
2022/10/09 00:23:07;;;;;;;14.70;5.40;;;;;;;;;;5038260;28;20186;-68
2022/10/09 00:25:34;;;;;;;11.57;5.93;;;;;;;;;;5035391;28;20181;-68
2022/10/09 00:28:00;;;;;;;15.57;7.07;;;;;;;;;;5047104;28;20185;-68
2022/10/09 00:30:25;;;;;;;16.70;6.43;;;;;;;;;;5039657;28;20213;-68
2022/10/09 00:32:51;;;;;;;11.65;6.50;;;;;;;;;;5030751;28;20275;-68
2022/10/09 00:35:16;;;;;;;16.20;6.35;;;;;;;;;;5038272;28;20217;-68
2022/10/09 00:37:42;;;;;;;15.63;6.07;;;;;;;;;;5041135;28;20194;-68
2022/10/09 00:40:07;;;;;;;14.30;5.93;;;;;;;;;;5034588;28;20673;-68
2022/10/09 00:42:33;;;;;;;11.80;5.97;;;;;;;;;;5037092;28;20204;-68
2022/10/09 00:45:00;;;;;;;17.80;6.43;;;;;;;;;;5034042;28;20185;-68
2022/10/09 00:47:44;;;;;;;10.20;5.77;;;;;;;;;;5032425;28;20210;-68
2022/10/09 00:50:18;;;;;;;13.80;4.97;;;;;;;;;;5037902;28;20181;-68
2022/10/09 00:52:44;;;;;;;12.67;5.10;;;;;;;;;;5035643;28;20216;-68
2022/10/09 00:55:11;;;;;;;12.17;5.13;;;;;;;;;;5040123;28;20174;-68
2022/10/09 00:57:38;;;;;;;12.03;5.30;;;;;;;;;;5035609;28;20173;-68
2022/10/09 01:00:07;;;;;;;15.20;4.87;;;;;;;;;;5040907;28;20173;-68
2022/10/09 01:02:32;;;;;;;16.43;5.30;;;;;;;;;;5041091;28;20185;-68
2022/10/09 01:04:58;;;;;;;10.50;5.07;;;;;;;;;;5038108;28;21066;-68
2022/10/09 01:07:31;;;;;;;13.07;5.33;;;;;;;;;;5039626;28;20186;-68
2022/10/09 01:10:04;;;;;;;15.10;5.43;;;;;;;;;;5043121;28;20276;-68
2022/10/09 01:12:54;;;;;;;10.73;5.13;;;;;;;;;;5039377;28;20300;-68
2022/10/09 01:15:26;;;;;;;9.73;4.70;;;;;;;;;;5028789;28;20178;-68
2022/10/09 01:18:23;;;;;;;13.47;5.57;;;;;;;;;;5034296;28;20190;-68
2022/10/09 01:20:55;;;;;;;15.20;4.77;;;;;;;;;;5034540;28;20557;-68
2022/10/09 01:23:39;;;;;;;9.73;5.20;;;;;;;;;;5039142;28;20187;-68
2022/10/09 01:26:13;;;;;;;12.87;4.80;;;;;;;;;;5037355;28;20181;-68
2022/10/09 01:28:41;;;;;;;8.13;4.67;;;;;;;;;;5039560;28;20739;-68
2022/10/09 01:31:07;;;;;;;10.37;4.40;;;;;;;;;;5043176;28;20244;-67
2022/10/09 01:33:33;;;;;;;10.83;4.60;;;;;;;;;;5038326;28;20236;-67
2022/10/09 01:36:00;;;;;;;8.33;4.73;;;;;;;;;;5036551;28;20174;-67
2022/10/09 01:38:27;;;;;;;10.00;4.50;;;;;;;;;;5040773;28;20181;-67
2022/10/09 01:40:52;;;;;;;8.00;4.83;;;;;;;;;;5045120;28;20216;-68
2022/10/09 01:43:18;;;;;;;11.00;4.83;;;;;;;;;;5040592;28;20668;-68
2022/10/09 01:45:46;;;;;;;9.87;4.33;;;;;;;;;;5039464;28;20174;-68
2022/10/09 01:48:18;;;;;;;10.47;4.50;;;;;;;;;;5036292;28;20711;-68
2022/10/09 01:50:46;;;;;;;10.50;4.70;;;;;;;;;;5032629;28;20178;-67
2022/10/09 01:53:18;;;;;;;11.33;4.73;;;;;;;;;;5041289;28;20205;-67
2022/10/09 01:55:53;;;;;;;9.10;5.07;;;;;;;;;;5040881;28;20178;-67
2022/10/09 01:58:30;;;;;;;11.83;5.13;;;;;;;;;;5034318;28;20251;-68
2022/10/09 02:01:11;;;;;;;11.30;4.80;;;;;;;;;;5039011;28;20205;-68
2022/10/09 02:03:39;;;;;;;8.37;5.27;;;;;;;;;;5035145;28;20198;-68
2022/10/09 02:06:07;;;;;;;7.47;4.87;;;;;;;;;;5045566;28;20199;-68
2022/10/09 02:08:35;;;;;;;11.40;5.37;;;;;;;;;;5043138;28;20673;-68
2022/10/09 02:11:04;;;;;;;9.73;4.80;;;;;;;;;;5035454;28;20208;-68
2022/10/09 02:13:32;;;;;;;9.23;5.00;;;;;;;;;;5036596;28;20173;-68
2022/10/09 02:16:23;;;;;;;10.90;5.00;;;;;;;;;;5047202;28;20192;-68
2022/10/09 02:18:57;;;;;;;12.40;5.47;;;;;;;;;;5040989;28;20185;-68
2022/10/09 02:21:39;;;;;;;10.80;5.20;;;;;;;;;;5041858;28;20236;-67
2022/10/09 02:24:08;;;;;;;13.33;5.30;;;;;;;;;;5036305;28;20265;-67
2022/10/09 02:26:34;;;;;;;10.97;5.13;;;;;;;;;;5039700;28;20378;-67
2022/10/09 02:28:59;;;;;;;9.97;5.00;;;;;;;;;;5045845;28;20628;-67
2022/10/09 02:31:30;;;;;;;10.30;5.30;;;;;;;;;;5046654;28;20229;-67
2022/10/09 02:34:01;;;;;;;12.60;5.03;;;;;;;;;;5043561;28;20180;-67
2022/10/09 02:36:28;;;;;;;7.37;5.20;;;;;;;;;;5038898;28;20656;-67
2022/10/09 02:38:54;;;;;;;10.03;4.77;;;;;;;;;;5041091;28;20530;-67
2022/10/09 02:41:20;;;;;;;10.47;4.90;;;;;;;;;;5029124;28;20222;-67
2022/10/09 02:43:45;;;;;;;8.13;4.33;;;;;;;;;;5031984;28;20217;-67
2022/10/09 02:46:11;;;;;;;11.50;4.97;;;;;;;;;;5044352;28;20453;-67
2022/10/09 02:48:36;;;;;;;10.83;4.50;;;;;;;;;;5044201;28;20176;-67
2022/10/09 02:51:01;;;;;;;8.53;5.17;;;;;;;;;;5043006;28;20238;-67
2022/10/09 02:53:27;;;;;;;14.13;5.47;;;;;;;;;;5047172;28;20575;-67
2022/10/09 02:55:52;;;;;;;9.07;4.90;;;;;;;;;;5039277;28;20186;-68
2022/10/09 02:58:18;;;;;;;13.80;5.90;;;;;;;;;;5032439;28;20189;-68
2022/10/09 03:00:50;;;;;;;12.57;6.23;;;;;;;;;;5029019;28;20281;-68
2022/10/09 03:03:16;;;;;;;10.70;5.83;;;;;;;;;;5031547;28;20474;-68
2022/10/09 03:05:42;;;;;;;14.03;7.17;;;;;;;;;;5036909;28;20245;-68
2022/10/09 03:08:07;;;;;;;21.97;7.50;;;;;;;;;;5034102;28;20181;-68
2022/10/09 03:10:32;;;;;;;12.87;7.67;;;;;;;;;;5032402;28;20206;-69
2022/10/09 03:12:58;;;;;;;15.73;7.70;;;;;;;;;;5037952;28;20655;-68
2022/10/09 03:15:23;;;;;;;18.30;8.27;;;;;;;;;;5035792;28;20649;-68
2022/10/09 03:17:49;;;;;;;15.27;8.80;;;;;;;;;;5034736;28;20181;-68
2022/10/09 03:20:14;;;;;;;13.87;8.30;;;;;;;;;;5035642;28;20184;-68
2022/10/09 03:22:40;;;;;;;16.13;8.90;;;;;;;;;;5032408;28;20208;-68
2022/10/09 03:25:06;;;;;;;18.33;9.33;;;;;;;;;;5031802;28;20821;-68
2022/10/09 03:27:31;;;;;;;19.67;9.17;;;;;;;;;;5030219;28;20610;-68
2022/10/09 03:29:59;;;;;;;20.10;10.03;;;;;;;;;;5029059;28;20186;-68
2022/10/09 03:32:25;;;;;;;16.47;8.90;;;;;;;;;;5035614;28;20225;-68
2022/10/09 03:34:50;;;;;;;14.07;8.63;;;;;;;;;;5031230;28;20661;-68
2022/10/09 03:37:17;;;;;;;15.30;8.53;;;;;;;;;;5033513;28;20544;-68
2022/10/09 03:39:42;;;;;;;15.77;7.90;;;;;;;;;;5033456;28;20540;-68
2022/10/09 03:42:07;;;;;;;12.83;7.17;;;;;;;;;;5042115;28;20399;-68
2022/10/09 03:44:33;;;;;;;13.17;6.70;;;;;;;;;;5031480;28;20184;-68
2022/10/09 03:46:58;;;;;;;19.60;8.07;;;;;;;;;;5026750;28;20186;-68
2022/10/09 03:49:23;;;;;;;15.73;7.57;;;;;;;;;;5029325;28;20662;-68
2022/10/09 03:51:49;;;;;;;14.20;7.37;;;;;;;;;;5037375;28;20252;-68
2022/10/09 03:54:14;;;;;;;14.30;7.40;;;;;;;;;;5029267;28;20174;-68
2022/10/09 03:56:39;;;;;;;11.83;7.47;;;;;;;;;;5031917;28;20167;-68
2022/10/09 03:59:06;;;;;;;13.00;7.03;;;;;;;;;;5031352;28;20231;-68
2022/10/09 04:01:32;;;;;;;10.77;6.97;;;;;;;;;;5029607;28;20217;-68
2022/10/09 04:03:57;;;;;;;13.17;7.10;;;;;;;;;;5028401;28;20650;-68
2022/10/09 04:06:22;;;;;;;11.27;6.90;;;;;;;;;;5031488;28;20280;-68
2022/10/09 04:08:48;;;;;;;13.83;6.80;;;;;;;;;;5048792;28;20239;-67
2022/10/09 04:11:13;;;;;;;13.47;7.50;;;;;;;;;;5048252;28;20185;-67
2022/10/09 04:13:39;;;;;;;13.10;7.10;;;;;;;;;;5047462;28;20177;-68
2022/10/09 04:16:05;;;;;;;12.97;7.47;;;;;;;;;;5044692;28;20205;-68
2022/10/09 04:18:30;;;;;;;17.73;8.07;;;;;;;;;;5047478;28;20224;-68
2022/10/09 04:20:56;;;;;;;12.93;6.97;;;;;;;;;;5042448;28;20236;-68
2022/10/09 04:23:24;;;;;;;15.13;7.60;;;;;;;;;;5035456;28;20206;-68
2022/10/09 04:25:54;;;;;;;17.03;8.10;;;;;;;;;;5038186;28;20646;-68
2022/10/09 04:28:19;;;;;;;11.57;7.30;;;;;;;;;;5037760;28;20236;-67
2022/10/09 04:30:45;;;;;;;11.93;7.63;;;;;;;;;;5033149;28;20699;-68
2022/10/09 04:33:10;;;;;;;12.40;8.00;;;;;;;;;;5033272;28;20209;-68
2022/10/09 04:35:39;;;;;;;14.83;7.27;;;;;;;;;;5035011;28;20197;-68
2022/10/09 04:38:05;;;;;;;16.53;7.40;;;;;;;;;;5037203;28;20301;-68
2022/10/09 04:40:30;;;;;;;9.70;7.60;;;;;;;;;;5035804;28;20349;-68
2022/10/09 04:42:55;;;;;;;15.37;8.40;;;;;;;;;;5033574;28;20281;-68
2022/10/09 04:45:21;;;;;;;16.37;7.93;;;;;;;;;;5036818;28;20178;-68
2022/10/09 04:47:46;;;;;;;15.97;8.53;;;;;;;;;;5033361;28;20649;-68
2022/10/09 04:50:11;;;;;;;18.43;9.03;;;;;;;;;;5045976;28;20579;-68
2022/10/09 04:52:37;;;;;;;16.13;8.57;;;;;;;;;;5045086;28;20201;-68
2022/10/09 04:55:02;;;;;;;15.50;8.37;;;;;;;;;;5037490;28;20190;-68
2022/10/09 04:57:27;;;;;;;14.30;8.77;;;;;;;;;;5030295;28;20186;-68
2022/10/09 04:59:53;;;;;;;12.23;8.03;;;;;;;;;;5032910;28;20247;-68
2022/10/09 05:02:18;;;;;;;12.23;7.27;;;;;;;;;;5035439;28;20217;-68
2022/10/09 05:04:45;;;;;;;14.20;8.70;;;;;;;;;;5047042;28;20181;-68
2022/10/09 05:07:10;;;;;;;18.30;9.37;;;;;;;;;;5049202;28;20703;-68
2022/10/09 05:09:36;;;;;;;14.27;8.83;;;;;;;;;;5040667;28;20191;-68
2022/10/09 05:12:01;;;;;;;15.00;8.73;;;;;;;;;;5035918;28;20247;-68
2022/10/09 05:14:26;;;;;;;18.00;8.60;;;;;;;;;;5042797;28;20189;-68
2022/10/09 05:16:52;;;;;;;14.20;8.97;;;;;;;;;;5035658;28;20190;-68
2022/10/09 05:19:17;;;;;;;14.30;8.50;;;;;;;;;;5041423;28;20181;-68
2022/10/09 05:21:43;;;;;;;13.47;7.83;;;;;;;;;;5040113;28;20317;-68
2022/10/09 05:24:08;;;;;;;13.03;8.33;;;;;;;;;;5037336;28;20195;-68
2022/10/09 05:26:33;;;;;;;16.53;9.03;;;;;;;;;;5042094;28;20273;-68
2022/10/09 05:28:58;;;;;;;14.90;8.67;;;;;;;;;;5045843;28;20268;-68
2022/10/09 05:31:26;;;;;;;16.40;8.97;;;;;;;;;;5040880;28;20226;-68
2022/10/09 05:33:52;;;;;;;14.90;8.80;;;;;;;;;;5033246;28;20194;-68
2022/10/09 05:36:18;;;;;;;15.33;8.27;;;;;;;;;;5038475;28;20320;-68
2022/10/09 05:38:44;;;;;;;14.50;8.30;;;;;;;;;;5029250;28;20682;-68
2022/10/09 05:41:12;;;;;;;17.37;9.10;;;;;;;;;;5038841;28;20209;-68
2022/10/09 05:43:40;;;;;;;14.23;8.73;;;;;;;;;;5039905;28;20648;-68
2022/10/09 05:46:17;;;;;;;17.60;8.97;;;;;;;;;;5037240;28;20203;-68
2022/10/09 05:48:44;;;;;;;16.63;8.73;;;;;;;;;;5040766;28;20188;-68
2022/10/09 05:51:16;;;;;;;15.00;8.57;;;;;;;;;;5032405;28;20228;-68
2022/10/09 05:53:43;;;;;;;15.63;9.27;;;;;;;;;;5040429;28;20243;-67
2022/10/09 05:56:32;;;;;;;14.07;9.10;;;;;;;;;;5043582;28;20272;-67
2022/10/09 05:59:00;;;;;;;14.87;8.90;;;;;;;;;;5030876;28;20190;-67
2022/10/09 06:01:29;;;;;;;15.03;8.40;;;;;;;;;;5029076;28;20245;-67
2022/10/09 06:03:57;;;;;;;14.33;8.33;;;;;;;;;;5031874;28;20184;-68
2022/10/09 06:06:24;;;;;;;17.60;9.33;;;;;;;;;;5032927;28;20198;-67
2022/10/09 06:08:50;;;;;;;14.33;9.17;;;;;;;;;;5031297;28;20188;-67
2022/10/09 06:11:36;;;;;;;16.80;9.30;;;;;;;;;;5032717;28;20186;-67
2022/10/09 06:14:03;;;;;;;20.97;9.70;;;;;;;;;;5035523;28;20277;-67
2022/10/09 06:16:32;;;;;;;16.20;9.00;;;;;;;;;;5031884;28;20217;-67
2022/10/09 06:18:58;;;;;;;20.07;10.40;;;;;;;;;;5036134;28;20200;-69
2022/10/09 06:21:25;;;;;;;16.73;9.73;;;;;;;;;;5031012;28;20197;-67
2022/10/09 06:23:53;;;;;;;17.63;10.43;;;;;;;;;;5034136;28;20185;-67
2022/10/09 06:26:19;;;;;;;19.37;10.03;;;;;;;;;;5040622;28;20193;-67
2022/10/09 06:28:46;;;;;;;20.03;9.63;;;;;;;;;;5031523;28;20178;-68
2022/10/09 06:31:20;;;;;;;21.83;10.57;;;;;;;;;;5029950;28;20222;-67
2022/10/09 06:33:46;;;;;;;19.77;10.10;;;;;;;;;;5028137;28;20239;-67
2022/10/09 06:36:14;;;;;;;20.73;10.13;;;;;;;;;;5033191;28;20192;-67
2022/10/09 06:38:40;;;;;;;20.00;10.00;;;;;;;;;;5035710;28;20664;-67
2022/10/09 06:41:09;;;;;;;17.00;10.43;;;;;;;;;;5036905;28;20270;-67
2022/10/09 06:43:34;;;;;;;18.13;10.67;;;;;;;;;;5034856;28;20733;-67
2022/10/09 06:46:02;;;;;;;21.40;10.90;;;;;;;;;;5041639;28;20276;-67
2022/10/09 06:48:29;;;;;;;18.63;11.20;;;;;;;;;;5045832;28;20177;-67
2022/10/09 06:50:59;;;;;;;18.70;10.07;;;;;;;;;;5038193;28;20224;-67
2022/10/09 06:53:24;;;;;;;18.63;10.23;;;;;;;;;;5035742;28;20196;-67
2022/10/09 06:55:52;;;;;;;20.43;10.13;;;;;;;;;;5033475;28;20185;-67
2022/10/09 06:58:17;;;;;;;21.87;10.80;;;;;;;;;;5034540;28;20206;-67
2022/10/09 07:00:43;;;;;;;24.17;11.47;;;;;;;;;;5027999;28;20232;-67
2022/10/09 07:03:08;;;;;;;25.60;12.50;;;;;;;;;;5029112;28;20239;-67
2022/10/09 07:05:33;;;;;;;21.93;12.73;;;;;;;;;;5034298;28;20212;-67
2022/10/09 07:07:59;;;;;;;22.50;12.77;;;;;;;;;;5033559;28;20735;-67
2022/10/09 07:10:24;;;;;;;27.83;13.23;;;;;;;;;;5029915;28;20268;-67
2022/10/09 07:12:49;;;;;;;26.10;11.77;;;;;;;;;;5030972;28;20224;-67
2022/10/09 07:15:15;;;;;;;22.23;12.70;;;;;;;;;;5034029;28;20285;-67
2022/10/09 07:17:40;;;;;;;20.87;13.23;;;;;;;;;;5033604;28;20723;-68
2022/10/09 07:20:06;;;;;;;22.37;12.53;;;;;;;;;;5031197;28;20261;-68
2022/10/09 07:22:31;;;;;;;24.57;13.67;;;;;;;;;;5038105;28;20192;-67
2022/10/09 07:24:56;;;;;;;34.10;15.30;;;;;;;;;;5028481;28;20816;-67
2022/10/09 07:27:22;;;;;;;34.90;16.17;;;;;;;;;;5031937;28;20216;-67
2022/10/09 07:29:47;;;;;;;30.63;16.40;;;;;;;;;;5027924;28;20213;-67
2022/10/09 07:32:13;;;;;;;32.97;16.97;;;;;;;;;;5038786;28;20228;-68
2022/10/09 07:34:38;;;;;;;30.40;16.77;;;;;;;;;;5043557;28;20189;-68
2022/10/09 07:37:03;;;;;;;32.70;17.33;;;;;;;;;;5039916;28;20661;-68
2022/10/09 07:39:28;;;;;;;31.03;17.00;;;;;;;;;;5039431;28;20650;-68
2022/10/09 07:41:54;;;;;;;33.67;17.67;;;;;;;;;;5030598;28;20304;-68
2022/10/09 07:44:19;;;;;;;31.77;18.37;;;;;;;;;;5032798;28;20621;-68
2022/10/09 07:46:45;;;;;;;40.43;19.37;;;;;;;;;;5036053;28;20200;-68
2022/10/09 07:49:10;;;;;;;32.57;17.30;;;;;;;;;;5033301;28;20181;-67
2022/10/09 07:51:36;;;;;;;34.83;18.70;;;;;;;;;;5037856;28;20189;-68
2022/10/09 07:54:01;;;;;;;41.37;19.63;;;;;;;;;;5033800;28;20174;-68
2022/10/09 07:56:29;;;;;;;39.07;18.87;;;;;;;;;;5030706;28;20182;-67
2022/10/09 07:58:56;;;;;;;33.40;19.27;;;;;;;;;;5034814;28;20319;-67
2022/10/09 08:01:22;;;;;;;41.37;21.00;;;;;;;;;;5029326;28;20205;-67
2022/10/09 08:03:48;;;;;;;39.20;21.90;;;;;;;;;;5033986;28;20605;-67
2022/10/09 08:06:15;;;;;;;42.83;22.00;;;;;;;;;;5035244;28;20189;-67
2022/10/09 08:08:40;;;;;;;44.00;20.90;;;;;;;;;;5029409;28;20194;-68
2022/10/09 08:11:13;;;;;;;47.40;22.37;;;;;;;;;;5029418;28;20559;-68
2022/10/09 08:13:40;;;;;;;40.47;22.23;;;;;;;;;;5036140;28;20697;-67
2022/10/09 08:16:06;;;;;;;46.27;22.57;;;;;;;;;;5029647;28;20190;-67
2022/10/09 08:18:32;;;;;;;49.10;21.67;;;;;;;;;;5030770;28;20175;-67
2022/10/09 08:21:04;;;;;;;48.67;22.55;;;;;;;;;;5032943;28;20205;-68
2022/10/09 08:23:29;;;;;;;47.67;22.58;;;;;;;;;;5030590;28;20182;-68
2022/10/09 08:25:55;;;;;;;47.53;22.17;;;;;;;;;;5038481;28;20185;-68
2022/10/09 08:28:21;;;;;;;41.72;21.45;;;;;;;;;;5031313;28;20178;-67
2022/10/09 08:30:47;;;;;;;33.47;20.70;;;;;;;;;;5029982;28;20245;-68
2022/10/09 08:33:12;;;;;;;38.38;20.02;;;;;;;;;;5046362;28;20201;-67
2022/10/09 08:35:37;;;;;;;37.33;20.23;;;;;;;;;;5037299;28;20692;-68
2022/10/09 08:38:03;;;;;;;36.90;17.27;;;;;;;;;;5044324;28;20529;-67
2022/10/09 08:40:40;;;;;;;39.97;17.85;;;;;;;;;;5029187;28;20274;-68
2022/10/09 08:43:06;;;;;;;39.47;17.73;;;;;;;;;;5040158;28;20262;-67
2022/10/09 08:45:33;;;;;;;39.78;18.15;;;;;;;;;;5047665;28;20648;-67
2022/10/09 08:48:09;;;;;;;33.55;16.20;;;;;;;;;;5029415;28;20186;-67
2022/10/09 08:50:38;;;;;;;27.95;15.20;;;;;;;;;;5031130;28;20170;-68
2022/10/09 08:53:16;;;;;;;29.77;14.50;;;;;;;;;;5029506;28;20177;-68
2022/10/09 08:55:49;;;;;;;32.75;12.50;;;;;;;;;;5041078;28;20177;-67
2022/10/09 08:58:17;;;;;;;27.42;12.70;;;;;;;;;;5028170;28;20181;-67
2022/10/09 09:01:01;;;;;;;31.95;13.13;;;;;;;;;;5034473;28;20190;-67
2022/10/09 09:03:38;;;;;;;28.02;13.48;;;;;;;;;;5043936;28;20189;-67
2022/10/09 09:06:17;;;;;;;22.70;11.32;;;;;;;;;;5034008;28;20186;-68
2022/10/09 09:09:03;;;;;;;23.02;11.07;;;;;;;;;;5037596;28;20230;-68
2022/10/09 09:11:59;;;;;;;25.50;10.73;;;;;;;;;;5034602;28;20244;-67
2022/10/09 09:14:43;;;;;;;28.80;11.27;;;;;;;;;;5030426;28;20178;-67
2022/10/09 09:17:36;;;;;;;24.17;10.70;;;;;;;;;;5035112;28;20204;-67
2022/10/09 09:20:16;;;;;;;23.00;10.18;;;;;;;;;;5044661;28;20547;-67
2022/10/09 09:22:47;;;;;;;26.05;10.32;;;;;;;;;;5039184;28;20696;-67
2022/10/09 09:25:30;;;;;;;18.90;9.57;;;;;;;;;;5037083;28;20206;-67
2022/10/09 09:28:09;;;;;;;20.67;9.45;;;;;;;;;;5033046;28;20190;-67
2022/10/09 09:30:43;;;;;;;16.98;8.02;;;;;;;;;;5049587;28;20224;-67
2022/10/09 09:33:14;;;;;;;19.48;8.05;;;;;;;;;;5049318;28;20354;-67
2022/10/09 09:36:04;;;;;;;15.85;7.72;;;;;;;;;;5046402;28;20183;-67
2022/10/09 09:38:29;;;;;;;19.58;7.22;;;;;;;;;;5040247;28;20604;-68
2022/10/09 09:40:54;;;;;;;17.45;6.45;;;;;;;;;;5030723;28;20332;-67
2022/10/09 09:43:22;;;;;;;15.32;6.55;;;;;;;;;;5029567;28;20197;-68
2022/10/09 09:45:52;;;;;;;16.55;5.55;;;;;;;;;;5043484;28;20772;-67
2022/10/09 09:48:37;;;;;;;19.13;6.15;;;;;;;;;;5034388;28;20177;-67
2022/10/09 09:51:06;;;;;;;14.02;5.35;;;;;;;;;;5046968;28;20527;-67
2022/10/09 09:53:36;;;;;;;12.65;5.10;;;;;;;;;;5029645;28;20182;-67
2022/10/09 09:56:02;;;;;;;11.30;5.60;;;;;;;;;;5029061;28;20181;-67
2022/10/09 09:58:38;;;;;;;12.63;5.10;;;;;;;;;;5033251;28;20181;-67
2022/10/09 10:01:05;;;;;;;18.42;5.50;;;;;;;;;;5047013;28;20216;-68
2022/10/09 10:03:33;;;;;;;15.60;5.40;;;;;;;;;;5030924;28;20178;-67
2022/10/09 10:05:59;;;;;;;13.95;5.68;;;;;;;;;;5029609;28;20642;-67
2022/10/09 10:08:30;;;;;;;13.38;4.97;;;;;;;;;;5037342;28;20181;-67
2022/10/09 10:10:58;;;;;;;16.48;5.38;;;;;;;;;;5049379;28;20184;-69
2022/10/09 10:13:44;;;;;;;11.77;4.38;;;;;;;;;;5037659;28;20559;-67
2022/10/09 10:16:26;;;;;;;15.60;4.80;;;;;;;;;;5038316;28;20653;-67
2022/10/09 10:18:54;;;;;;;12.07;4.30;;;;;;;;;;5043250;28;20186;-67
2022/10/09 10:21:20;;;;;;;15.35;3.92;;;;;;;;;;5029400;28;20210;-66
2022/10/09 10:23:56;;;;;;;12.35;3.88;;;;;;;;;;5045937;28;20952;-67
2022/10/09 10:26:55;;;;;;;10.80;4.10;;;;;;;;;;5042766;28;20196;-67
2022/10/09 10:29:28;;;;;;;12.90;3.72;;;;;;;;;;5029610;28;20265;-68
2022/10/09 10:32:04;;;;;;;6.75;3.08;;;;;;;;;;5042774;28;20225;-68
2022/10/09 10:34:36;;;;;;;9.10;3.20;;;;;;;;;;5036830;28;20276;-67
2022/10/09 10:37:13;;;;;;;6.82;3.00;;;;;;;;;;5034500;28;20217;-68
2022/10/09 10:39:51;;;;;;;6.65;2.53;;;;;;;;;;5044254;28;20585;-68
2022/10/09 10:42:43;;;;;;;12.50;2.90;;;;;;;;;;5048618;28;20279;-65
2022/10/09 10:45:19;;;;;;;14.55;3.00;;;;;;;;;;5048963;28;20493;-68
2022/10/09 10:47:50;;;;;;;8.25;3.10;;;;;;;;;;5032522;28;20182;-66
2022/10/09 10:50:16;;;;;;;16.70;2.78;;;;;;;;;;5036916;28;20683;-67
2022/10/09 10:53:03;;;;;;;14.35;2.95;;;;;;;;;;5036334;28;20244;-66
2022/10/09 10:55:31;;;;;;;11.50;3.25;;;;;;;;;;5038217;28;20583;-67
2022/10/09 10:58:05;;;;;;;8.18;2.90;;;;;;;;;;5035250;28;20235;-67
2022/10/09 11:00:36;;;;;;;8.07;2.20;;;;;;;;;;5048706;28;20264;-66
2022/10/09 11:03:17;;;;;;;8.13;2.22;;;;;;;;;;5030533;28;20240;-67
2022/10/09 11:05:45;;;;;;;8.57;2.05;;;;;;;;;;5041391;28;20664;-66
2022/10/09 11:08:33;;;;;;;6.90;2.13;;;;;;;;;;5040844;28;20181;-66
2022/10/09 11:11:08;;;;;;;5.35;1.55;;;;;;;;;;5029483;28;20181;-67
2022/10/09 11:13:58;;;;;;;9.57;2.25;;;;;;;;;;5030564;28;20244;-67
2022/10/09 11:16:50;;;;;;;9.50;1.60;;;;;;;;;;5033280;28;20182;-66
2022/10/09 11:19:38;;;;;;;7.35;1.83;;;;;;;;;;5036300;28;20197;-66
2022/10/09 11:22:43;;;;;;;9.50;2.03;;;;;;;;;;5037642;28;20209;-66
2022/10/09 11:25:25;;;;;;;7.70;1.70;;;;;;;;;;5038185;28;20200;-67
2022/10/09 11:28:03;;;;;;;10.63;2.10;;;;;;;;;;5043473;28;20347;-67
2022/10/09 11:30:53;;;;;;;6.70;1.70;;;;;;;;;;5039640;28;20225;-66
2022/10/09 11:33:45;;;;;;;8.30;1.88;;;;;;;;;;5040726;28;20209;-67
2022/10/09 11:36:17;;;;;;;8.35;1.63;;;;;;;;;;5036444;28;20182;-67
2022/10/09 11:38:47;;;;;;;5.72;1.70;;;;;;;;;;5037736;28;20181;-66
2022/10/09 11:41:13;;;;;;;10.93;1.95;;;;;;;;;;5038112;28;20293;-67
2022/10/09 11:43:39;;;;;;;8.45;1.98;;;;;;;;;;5036615;28;20276;-67
2022/10/09 11:46:19;;;;;;;8.20;1.95;;;;;;;;;;5035633;28;20616;-67
2022/10/09 11:48:57;;;;;;;7.28;1.83;;;;;;;;;;5034899;28;20266;-67
2022/10/09 11:51:32;;;;;;;9.13;2.00;;;;;;;;;;5037958;28;20182;-67
2022/10/09 11:53:58;;;;;;;12.02;2.72;;;;;;;;;;5034869;28;20182;-67
2022/10/09 11:56:28;;;;;;;6.65;1.85;;;;;;;;;;5037758;28;20176;-67
2022/10/09 11:58:57;;;;;;;10.55;2.20;;;;;;;;;;5036029;28;20312;-67
2022/10/09 12:01:27;;;;;;;9.30;2.50;;;;;;;;;;5037966;28;20201;-66
2022/10/09 12:04:19;;;;;;;8.60;1.73;;;;;;;;;;5037745;28;20189;-67
2022/10/09 12:06:51;;;;;;;8.60;2.25;;;;;;;;;;5035313;28;20178;-66
2022/10/09 12:09:25;;;;;;;5.53;1.85;;;;;;;;;;5036574;28;20178;-67
2022/10/09 12:12:06;;;;;;;9.70;2.25;;;;;;;;;;5045117;28;20672;-66
2022/10/09 12:14:34;;;;;;;5.95;1.80;;;;;;;;;;5038677;28;20208;-67
2022/10/09 12:17:00;;;;;;;8.10;1.90;;;;;;;;;;5036035;28;20309;-67
2022/10/09 12:19:27;;;;;;;6.18;2.17;;;;;;;;;;5033993;28;20217;-67
2022/10/09 12:22:12;;;;;;;7.30;1.77;;;;;;;;;;5033665;28;20244;-69
2022/10/09 12:25:05;;;;;;;7.88;2.58;;;;;;;;;;5029307;28;20559;-67
2022/10/09 12:27:35;;;;;;;8.52;2.30;;;;;;;;;;5027416;28;20192;-67
2022/10/09 12:30:13;;;;;;;5.43;2.25;;;;;;;;;;5030239;28;20189;-67
2022/10/09 12:32:43;;;;;;;6.07;2.22;;;;;;;;;;5032944;28;20214;-66
2022/10/09 12:35:31;;;;;;;8.70;2.28;;;;;;;;;;5037549;28;20173;-67
2022/10/09 12:37:56;;;;;;;6.78;2.47;;;;;;;;;;5034382;28;20178;-68
2022/10/09 12:40:24;;;;;;;5.15;2.70;;;;;;;;;;5035384;28;20178;-67
2022/10/09 12:42:52;;;;;;;5.85;2.53;;;;;;;;;;5039978;28;20271;-67
2022/10/09 12:45:21;;;;;;;8.02;2.58;;;;;;;;;;5038813;28;20235;-67
2022/10/09 12:47:47;;;;;;;8.35;2.50;;;;;;;;;;5035664;28;20541;-67
2022/10/09 12:50:15;;;;;;;8.07;2.53;;;;;;;;;;5038125;28;20257;-67
2022/10/09 12:52:53;;;;;;;10.20;2.60;;;;;;;;;;5033301;28;20671;-67
2022/10/09 12:55:42;;;;;;;8.82;2.90;;;;;;;;;;5032498;28;20260;-68
2022/10/09 12:58:18;;;;;;;5.68;2.08;;;;;;;;;;5034867;28;20185;-67
2022/10/09 13:00:47;;;;;;;8.77;2.70;;;;;;;;;;5034953;28;20336;-68
2022/10/09 13:03:25;;;;;;;5.82;2.03;;;;;;;;;;5033256;28;20182;-68
2022/10/09 13:05:51;;;;;;;8.15;2.58;;;;;;;;;;5033355;28;20197;-67
2022/10/09 13:08:37;;;;;;;9.15;3.13;;;;;;;;;;5035234;28;20264;-67
2022/10/09 13:11:28;;;;;;;5.45;2.35;;;;;;;;;;5030958;28;20182;-67
2022/10/09 13:13:54;;;;;;;5.57;2.50;;;;;;;;;;5030378;28;20178;-67
2022/10/09 13:16:20;;;;;;;7.78;2.50;;;;;;;;;;5033763;28;20181;-67
2022/10/09 13:19:00;;;;;;;7.40;2.38;;;;;;;;;;5031555;28;20281;-67
2022/10/09 13:21:28;;;;;;;9.38;2.35;;;;;;;;;;5035435;28;20209;-66
2022/10/09 13:23:55;;;;;;;6.97;2.55;;;;;;;;;;5044769;28;20692;-66
2022/10/09 13:26:26;;;;;;;7.93;2.10;;;;;;;;;;5043937;28;20186;-67
2022/10/09 13:28:53;;;;;;;8.02;2.20;;;;;;;;;;5042203;28;20205;-66
2022/10/09 13:31:19;;;;;;;5.78;2.15;;;;;;;;;;5044568;28;20731;-66
2022/10/09 13:33:46;;;;;;;7.60;2.50;;;;;;;;;;5035132;28;20652;-66
2022/10/09 13:36:12;;;;;;;5.15;2.25;;;;;;;;;;5038992;28;20182;-66
2022/10/09 13:38:38;;;;;;;6.55;2.80;;;;;;;;;;5041971;28;20185;-66
2022/10/09 13:41:03;;;;;;;5.95;2.42;;;;;;;;;;5033998;28;20213;-66
2022/10/09 13:43:29;;;;;;;7.82;2.80;;;;;;;;;;5037793;28;20319;-66
2022/10/09 13:45:55;;;;;;;11.57;2.55;;;;;;;;;;5035501;28;20184;-66
2022/10/09 13:48:21;;;;;;;6.35;2.53;;;;;;;;;;5032982;28;20553;-66
2022/10/09 13:50:46;;;;;;;8.63;2.58;;;;;;;;;;5041854;28;20173;-67
2022/10/09 13:53:11;;;;;;;5.10;2.10;;;;;;;;;;5029760;28;20182;-67
2022/10/09 13:55:37;;;;;;;5.10;2.15;;;;;;;;;;5043638;28;20189;-66
2022/10/09 13:58:02;;;;;;;9.07;2.58;;;;;;;;;;5033342;28;20181;-66
2022/10/09 14:00:28;;;;;;;10.77;2.20;;;;;;;;;;5033885;28;20217;-66
2022/10/09 14:02:53;;;;;;;7.05;2.28;;;;;;;;;;5036602;28;20186;-66
2022/10/09 14:05:20;;;;;;;8.75;2.00;;;;;;;;;;5031784;28;20668;-67
2022/10/09 14:07:45;;;;;;;6.80;2.42;;;;;;;;;;5027281;28;20261;-67
2022/10/09 14:10:11;;;;;;;5.32;2.22;;;;;;;;;;5029494;28;20266;-66
2022/10/09 14:12:36;;;;;;;8.23;1.85;;;;;;;;;;5029995;28;20851;-66
2022/10/09 14:15:02;;;;;;;12.07;2.63;;;;;;;;;;5046758;28;20245;-67
2022/10/09 14:17:27;;;;;;;6.95;2.35;;;;;;;;;;5038878;28;20174;-66
2022/10/09 14:19:52;;;;;;;8.13;2.25;;;;;;;;;;5029129;28;20186;-68
2022/10/09 14:22:18;;;;;;;9.00;2.20;;;;;;;;;;5033831;28;20198;-68
2022/10/09 14:24:43;;;;;;;4.63;1.70;;;;;;;;;;5031015;28;20561;-66
2022/10/09 14:27:09;;;;;;;4.60;1.80;;;;;;;;;;5034689;28;20189;-68
2022/10/09 14:29:36;;;;;;;5.55;2.20;;;;;;;;;;5030994;28;20177;-68
2022/10/09 14:32:01;;;;;;;5.55;2.28;;;;;;;;;;5034196;28;20229;-66
2022/10/09 14:34:27;;;;;;;4.75;1.67;;;;;;;;;;5032297;28;20190;-68
2022/10/09 14:36:52;;;;;;;4.93;1.80;;;;;;;;;;5038349;28;20540;-68
2022/10/09 14:39:17;;;;;;;9.30;2.17;;;;;;;;;;5032254;28;20185;-66
2022/10/09 14:41:43;;;;;;;5.80;3.05;;;;;;;;;;5034247;28;20205;-66
2022/10/09 14:44:08;;;;;;;4.75;1.98;;;;;;;;;;5035807;28;20224;-68
2022/10/09 14:46:36;;;;;;;5.68;1.67;;;;;;;;;;5036074;28;20330;-66